Hatsu Smart — MLBD9 — position and weather

sailwx.info

Track history (hours):
 
Tides and Currents Weather Stations Pressure Air Temp Water Temp Dewpoint Dewpoint Depression Visibility Wind Speed Wind Dir Waves Ship Positions

Hatsu Smart

Last reported at 2018-Feb-20 18:37 UTC. Time now 2018-Feb-20 19:45 UTC.
Position N 34°15' E 129°54'.

Type: Cargo ship. MMSI: 235010450.

Date/timePositionNaut miles runAvg speedWind from/ knotsBaromVisibWave heightAir tempDewpointWater temp
2018-Feb-20 18:37N 34°15' E 129°54'417.7
2018-Feb-20 18:25N 34°17' E 129°58'717.9
2018-Feb-20 18:01N 34°22' E 130°05'917.9
2018-Feb-20 17:30N 34°28' E 130°13'917.8
2018-Feb-20 16:58N 34°34' E 130°22'818.1
2018-Feb-20 16:30N 34°39' E 130°30'918.1
2018-Feb-20 16:00N 34°45' E 130°38'60418.4
2018-Feb-19 07:09N 41°21' E 140°18'416.2
2018-Feb-19 06:55N 41°23' E 140°21'717.2
2018-Feb-19 06:30N 41°27' E 140°29'917.7
2018-Feb-19 06:00N 41°33' E 140°39'917.2
2018-Feb-19 05:30N 41°38' E 140°48'815.6
2018-Feb-19 05:00N 41°38' E 140°58'917.2
2018-Feb-19 04:31N 41°38' E 141°10'918.0
2018-Feb-19 04:00N 41°38' E 141°22'816.6
2018-Feb-19 03:30N 41°38' E 141°33'  
2018-Feb-15 19:00N 56°30' E 171°54'71716.7 320 / 21999.0 2.2 -2.0
2018-Feb-14 00:00N 54°30' W 167°18'48117.2 210 / 381018.5 5.4 7.0 5.0
2018-Feb-12 20:00N 49°18' W 157°24'214682.5 320 / 261032.0 5.4 4.0 4.0
2018-Feb-11 18:00N 84°48' W 146°18'2184121.3 270 / 81036.5 6.0 6.0
2018-Feb-11 00:00N 48°36' W 136°48'   180 / 201028.0 5.4 8.0 8.0
Track history (hours):
 
Tides and Currents Weather Stations Pressure Air Temp Water Temp Dewpoint Dewpoint Depression Visibility Wind Speed Wind Dir Waves Ship Positions

Hatsu Smart

Last reported at 2018-Feb-20 18:37 UTC. Time now 2018-Feb-20 19:45 UTC.
Position N 34°15' E 129°54'.

Type: Cargo ship. MMSI: 235010450.

Date/timePositionNaut miles runAvg speedWind from/ knotsBaromVisibWave heightAir tempDewpointWater temp
2018-Feb-20 18:37N 34°15' E 129°54'417.7
2018-Feb-20 18:25N 34°17' E 129°58'717.9
2018-Feb-20 18:01N 34°22' E 130°05'917.9
2018-Feb-20 17:30N 34°28' E 130°13'917.8
2018-Feb-20 16:58N 34°34' E 130°22'818.1
2018-Feb-20 16:30N 34°39' E 130°30'918.1
2018-Feb-20 16:00N 34°45' E 130°38'60418.4
2018-Feb-19 07:09N 41°21' E 140°18'416.2
2018-Feb-19 06:55N 41°23' E 140°21'717.2
2018-Feb-19 06:30N 41°27' E 140°29'917.7
2018-Feb-19 06:00N 41°33' E 140°39'917.2
2018-Feb-19 05:30N 41°38' E 140°48'815.6
2018-Feb-19 05:00N 41°38' E 140°58'917.2
2018-Feb-19 04:31N 41°38' E 141°10'918.0
2018-Feb-19 04:00N 41°38' E 141°22'816.6
2018-Feb-19 03:30N 41°38' E 141°33'  
2018-Feb-15 19:00N 56°30' E 171°54'71716.7 320 / 21999.0 2.2 -2.0
2018-Feb-14 00:00N 54°30' W 167°18'48117.2 210 / 381018.5 5.4 7.0 5.0
2018-Feb-12 20:00N 49°18' W 157°24'214682.5 320 / 261032.0 5.4 4.0 4.0
2018-Feb-11 18:00N 84°48' W 146°18'2184121.3 270 / 81036.5 6.0 6.0
2018-Feb-11 00:00N 48°36' W 136°48'   180 / 201028.0 5.4 8.0 8.0

Dump ship's entire track history